sensor_id;sensor_type;location;lat;lon;timestamp;pressure;altitude;pressure_sealevel;temperature;humidity
4528;BME280;62320;51.520;6.818;2023-01-27T00:04:38;101880.09;;;4.14;100.00
4528;BME280;62320;51.520;6.818;2023-01-27T00:14:40;101877.53;;;4.14;100.00
4528;BME280;62320;51.520;6.818;2023-01-27T00:24:41;101886.25;;;4.18;100.00
4528;BME280;62320;51.520;6.818;2023-01-27T00:34:43;101896.41;;;4.16;100.00
4528;BME280;62320;51.520;6.818;2023-01-27T00:44:45;101888.88;;;4.19;100.00
4528;BME280;62320;51.520;6.818;2023-01-27T00:55:07;101897.47;;;4.21;100.00
4528;BME280;62320;51.520;6.818;2023-01-27T01:05:08;101895.66;;;4.19;100.00
4528;BME280;62320;51.520;6.818;2023-01-27T01:15:10;101907.47;;;4.15;100.00
4528;BME280;62320;51.520;6.818;2023-01-27T01:25:11;101909.50;;;4.22;100.00
4528;BME280;62320;51.520;6.818;2023-01-27T01:35:13;101928.16;;;4.20;100.00
4528;BME280;62320;51.520;6.818;2023-01-27T01:55:33;101928.88;;;4.17;100.00
4528;BME280;62320;51.520;6.818;2023-01-27T02:05:41;101949.28;;;4.16;100.00
4528;BME280;62320;51.520;6.818;2023-01-27T02:15:43;101945.72;;;4.12;100.00
4528;BME280;62320;51.520;6.818;2023-01-27T02:36:15;101966.34;;;3.98;100.00
4528;BME280;62320;51.520;6.818;2023-01-27T02:46:17;101968.91;;;3.98;99.98
4528;BME280;62320;51.520;6.818;2023-01-27T02:56:19;101978.94;;;3.93;99.78
4528;BME280;62320;51.520;6.818;2023-01-27T03:06:21;101972.56;;;3.84;100.00
4528;BME280;62320;51.520;6.818;2023-01-27T03:16:22;101977.38;;;3.78;100.00
4528;BME280;62320;51.520;6.818;2023-01-27T03:26:42;101970.00;;;3.66;100.00
4528;BME280;62320;51.520;6.818;2023-01-27T03:36:43;101964.75;;;3.45;100.00
4528;BME280;62320;51.520;6.818;2023-01-27T03:47:03;101977.97;;;3.37;100.00
4528;BME280;62320;51.520;6.818;2023-01-27T03:57:05;101969.50;;;3.20;100.00
4528;BME280;62320;51.520;6.818;2023-01-27T04:07:06;101974.09;;;3.27;100.00
4528;BME280;62320;51.520;6.818;2023-01-27T04:17:16;101985.41;;;3.15;100.00
4528;BME280;62320;51.520;6.818;2023-01-27T04:27:17;101979.72;;;3.20;100.00
4528;BME280;62320;51.520;6.818;2023-01-27T04:37:20;101982.63;;;3.10;100.00
4528;BME280;62320;51.520;6.818;2023-01-27T04:47:22;101996.59;;;3.01;100.00
4528;BME280;62320;51.520;6.818;2023-01-27T04:57:23;101997.44;;;3.00;100.00
4528;BME280;62320;51.520;6.818;2023-01-27T05:07:25;102007.72;;;3.01;100.00
4528;BME280;62320;51.520;6.818;2023-01-27T05:17:31;102010.34;;;3.03;100.00
4528;BME280;62320;51.520;6.818;2023-01-27T05:27:32;102001.53;;;3.14;100.00
4528;BME280;62320;51.520;6.818;2023-01-27T05:37:34;102009.41;;;3.18;100.00
4528;BME280;62320;51.520;6.818;2023-01-27T05:47:35;102020.84;;;3.25;100.00
4528;BME280;62320;51.520;6.818;2023-01-27T05:57:37;102013.75;;;3.19;100.00
4528;BME280;62320;51.520;6.818;2023-01-27T06:07:38;102016.53;;;3.24;100.00
4528;BME280;62320;51.520;6.818;2023-01-27T06:17:40;102011.69;;;3.30;100.00
4528;BME280;62320;51.520;6.818;2023-01-27T06:27:41;102036.31;;;3.28;100.00
4528;BME280;62320;51.520;6.818;2023-01-27T06:37:44;102047.47;;;3.30;100.00
4528;BME280;62320;51.520;6.818;2023-01-27T06:47:52;102042.69;;;3.36;100.00
4528;BME280;62320;51.520;6.818;2023-01-27T06:57:55;102046.31;;;3.41;100.00
4528;BME280;62320;51.520;6.818;2023-01-27T07:07:57;102054.44;;;3.50;100.00
4528;BME280;62320;51.520;6.818;2023-01-27T07:17:59;102064.91;;;3.54;100.00
4528;BME280;62320;51.520;6.818;2023-01-27T07:28:02;102076.84;;;3.54;100.00
4528;BME280;62320;51.520;6.818;2023-01-27T07:38:04;102078.72;;;3.58;100.00
4528;BME280;62320;51.520;6.818;2023-01-27T07:48:07;102090.63;;;3.57;100.00
4528;BME280;62320;51.520;6.818;2023-01-27T07:58:09;102102.97;;;3.66;100.00
4528;BME280;62320;51.520;6.818;2023-01-27T08:08:10;102098.97;;;3.71;100.00
4528;BME280;62320;51.520;6.818;2023-01-27T08:18:12;102095.75;;;3.75;100.00
4528;BME280;62320;51.520;6.818;2023-01-27T08:28:13;102105.50;;;3.82;100.00
4528;BME280;62320;51.520;6.818;2023-01-27T08:38:17;102112.66;;;3.89;100.00
4528;BME280;62320;51.520;6.818;2023-01-27T08:48:19;102114.06;;;4.00;100.00
4528;BME280;62320;51.520;6.818;2023-01-27T08:58:23;102116.81;;;4.05;100.00
4528;BME280;62320;51.520;6.818;2023-01-27T09:08:25;102125.53;;;4.08;100.00
4528;BME280;62320;51.520;6.818;2023-01-27T09:18:27;102131.09;;;4.17;100.00
4528;BME280;62320;51.520;6.818;2023-01-27T09:28:28;102151.84;;;4.23;100.00
4528;BME280;62320;51.520;6.818;2023-01-27T09:38:32;102174.00;;;4.23;100.00
4528;BME280;62320;51.520;6.818;2023-01-27T10:19:48;102178.19;;;4.39;100.00
4528;BME280;62320;51.520;6.818;2023-01-27T10:30:12;102176.59;;;4.41;100.00
4528;BME280;62320;51.520;6.818;2023-01-27T10:40:27;102180.44;;;4.50;100.00
4528;BME280;62320;51.520;6.818;2023-01-27T10:50:41;102174.59;;;4.53;100.00
4528;BME280;62320;51.520;6.818;2023-01-27T11:00:49;102180.81;;;4.58;100.00
4528;BME280;62320;51.520;6.818;2023-01-27T11:11:14;102174.13;;;4.61;100.00
4528;BME280;62320;51.520;6.818;2023-01-27T11:21:37;102160.47;;;4.61;100.00
4528;BME280;62320;51.520;6.818;2023-01-27T11:42:10;102170.03;;;4.65;100.00
4528;BME280;62320;51.520;6.818;2023-01-27T11:52:14;102155.78;;;4.70;100.00
4528;BME280;62320;51.520;6.818;2023-01-27T12:02:28;102142.44;;;4.77;100.00
4528;BME280;62320;51.520;6.818;2023-01-27T12:12:35;102133.78;;;4.75;99.46
4528;BME280;62320;51.520;6.818;2023-01-27T12:22:38;102128.13;;;4.82;99.65
4528;BME280;62320;51.520;6.818;2023-01-27T12:32:43;102124.75;;;4.83;98.28
4528;BME280;62320;51.520;6.818;2023-01-27T12:42:49;102121.03;;;4.95;97.92
4528;BME280;62320;51.520;6.818;2023-01-27T12:53:10;102110.13;;;4.99;98.83
4528;BME280;62320;51.520;6.818;2023-01-27T13:03:13;102122.28;;;5.03;98.45
4528;BME280;62320;51.520;6.818;2023-01-27T13:13:20;102115.56;;;5.07;98.63
4528;BME280;62320;51.520;6.818;2023-01-27T13:23:33;102125.84;;;5.07;98.39
4528;BME280;62320;51.520;6.818;2023-01-27T13:43:54;102142.03;;;5.06;97.78
4528;BME280;62320;51.520;6.818;2023-01-27T13:54:01;102143.47;;;4.99;96.86
4528;BME280;62320;51.520;6.818;2023-01-27T14:14:37;102152.88;;;5.00;97.05
4528;BME280;62320;51.520;6.818;2023-01-27T14:25:06;102156.94;;;4.95;96.70
4528;BME280;62320;51.520;6.818;2023-01-27T14:35:30;102150.13;;;4.77;94.63
4528;BME280;62320;51.520;6.818;2023-01-27T14:45:39;102158.97;;;4.83;96.03
4528;BME280;62320;51.520;6.818;2023-01-27T15:06:15;102161.63;;;4.86;95.10
4528;BME280;62320;51.520;6.818;2023-01-27T15:26:27;102187.56;;;4.75;95.68
4528;BME280;62320;51.520;6.818;2023-01-27T15:36:36;102202.00;;;4.73;95.15
4528;BME280;62320;51.520;6.818;2023-01-27T15:46:48;102207.28;;;4.76;96.64
4528;BME280;62320;51.520;6.818;2023-01-27T15:56:52;102210.53;;;4.54;94.05
4528;BME280;62320;51.520;6.818;2023-01-27T16:06:59;102234.97;;;4.65;95.54
4528;BME280;62320;51.520;6.818;2023-01-27T16:17:30;102234.53;;;4.56;94.94
4528;BME280;62320;51.520;6.818;2023-01-27T16:37:38;102242.06;;;4.53;95.75
4528;BME280;62320;51.520;6.818;2023-01-27T16:48:02;102260.34;;;4.43;95.05
4528;BME280;62320;51.520;6.818;2023-01-27T16:58:20;102267.25;;;4.44;95.84
4528;BME280;62320;51.520;6.818;2023-01-27T17:08:28;102264.16;;;4.33;94.31
4528;BME280;62320;51.520;6.818;2023-01-27T17:18:37;102279.53;;;4.33;95.17
4528;BME280;62320;51.520;6.818;2023-01-27T17:28:52;102277.31;;;4.23;95.02
4528;BME280;62320;51.520;6.818;2023-01-27T17:38:54;102278.25;;;4.25;95.20
4528;BME280;62320;51.520;6.818;2023-01-27T17:49:03;102285.22;;;4.28;94.43
4528;BME280;62320;51.520;6.818;2023-01-27T17:59:19;102294.31;;;4.39;95.72
4528;BME280;62320;51.520;6.818;2023-01-27T18:09:26;102297.50;;;4.17;94.21
4528;BME280;62320;51.520;6.818;2023-01-27T18:19:28;102301.25;;;4.24;95.91
4528;BME280;62320;51.520;6.818;2023-01-27T18:29:36;102305.53;;;4.25;95.58
4528;BME280;62320;51.520;6.818;2023-01-27T18:39:40;102313.84;;;4.03;94.74
4528;BME280;62320;51.520;6.818;2023-01-27T18:49:42;102321.44;;;4.02;94.84
4528;BME280;62320;51.520;6.818;2023-01-27T18:59:44;102332.16;;;4.11;94.69
4528;BME280;62320;51.520;6.818;2023-01-27T19:09:46;102345.19;;;3.99;94.05
4528;BME280;62320;51.520;6.818;2023-01-27T19:19:48;102345.00;;;4.12;95.34
4528;BME280;62320;51.520;6.818;2023-01-27T19:29:50;102341.75;;;3.99;93.42
4528;BME280;62320;51.520;6.818;2023-01-27T19:39:51;102359.66;;;4.15;94.38
4528;BME280;62320;51.520;6.818;2023-01-27T19:49:53;102361.03;;;4.08;94.51
4528;BME280;62320;51.520;6.818;2023-01-27T19:59:54;102368.06;;;4.12;94.81
4528;BME280;62320;51.520;6.818;2023-01-27T20:09:56;102377.50;;;3.97;93.88
4528;BME280;62320;51.520;6.818;2023-01-27T20:19:57;102374.72;;;3.93;94.06
4528;BME280;62320;51.520;6.818;2023-01-27T20:29:58;102374.19;;;4.00;94.43
4528;BME280;62320;51.520;6.818;2023-01-27T20:40:00;102380.19;;;3.84;94.67
4528;BME280;62320;51.520;6.818;2023-01-27T20:50:02;102373.19;;;3.96;94.71
4528;BME280;62320;51.520;6.818;2023-01-27T21:00:06;102374.59;;;3.91;94.49
4528;BME280;62320;51.520;6.818;2023-01-27T21:10:08;102373.66;;;3.89;94.47
4528;BME280;62320;51.520;6.818;2023-01-27T21:20:10;102379.25;;;3.82;93.57
4528;BME280;62320;51.520;6.818;2023-01-27T21:30:12;102384.28;;;3.81;94.00
4528;BME280;62320;51.520;6.818;2023-01-27T21:40:13;102372.38;;;3.81;93.44
4528;BME280;62320;51.520;6.818;2023-01-27T21:50:16;102371.03;;;3.88;93.31
4528;BME280;62320;51.520;6.818;2023-01-27T22:00:23;102362.53;;;3.73;91.86
4528;BME280;62320;51.520;6.818;2023-01-27T22:10:28;102369.91;;;3.83;93.30
4528;BME280;62320;51.520;6.818;2023-01-27T22:20:30;102378.59;;;3.86;93.19
4528;BME280;62320;51.520;6.818;2023-01-27T22:30:32;102379.97;;;3.80;93.76
4528;BME280;62320;51.520;6.818;2023-01-27T22:40:33;102377.09;;;3.74;93.59
4528;BME280;62320;51.520;6.818;2023-01-27T22:50:35;102381.72;;;3.81;94.12
4528;BME280;62320;51.520;6.818;2023-01-27T23:00:37;102385.53;;;3.73;93.69
4528;BME280;62320;51.520;6.818;2023-01-27T23:10:39;102385.47;;;3.71;93.20
4528;BME280;62320;51.520;6.818;2023-01-27T23:20:41;102394.66;;;3.51;91.91
4528;BME280;62320;51.520;6.818;2023-01-27T23:30:47;102398.25;;;3.55;92.04
4528;BME280;62320;51.520;6.818;2023-01-27T23:40:49;102401.75;;;3.57;92.86
4528;BME280;62320;51.520;6.818;2023-01-27T23:50:56;102392.56;;;3.44;92.52
